Arlington, New Jersey
Current Conditions -  °F | °C
As of 11:51 PM on Sunday 19 Oct 2014 (Local Time) from KEWR Reporting Station
Broken Clouds Broken Clouds  
Wind Chill: 40°   Ceiling: 25000
Heat Index: 44°   Visibility: 10mi
Dew Point: 27°   Wind: 7mph
Humidity: 51%   Direction: 350°N
Pressure: 30.07"   Gusts: NA
Location:  40.7563°N, 74.1217°W
Report Text: KEWR 200351Z 35006KT 10SM BKN250 07/M03 A3007 RMK AO2 SLP183 T00671028
Loading
Personal Weather Stations






























Interactive Weather Map
Tropical Storm Tracking
New forecast layout! Learn more

10-Day Weather Forecast

Advertisements
Track Severe Weather on mobile